sensor_id;sensor_type;location;lat;lon;timestamp;P1;durP1;ratioP1;P2;durP2;ratioP2
26478;SDS011;14163;-26.142;27.992;2022-10-03T00:02:27;22.30;;;19.57;;
26478;SDS011;14163;-26.142;27.992;2022-10-03T02:07:24;19.27;;;17.20;;
26478;SDS011;14163;-26.142;27.992;2022-10-03T02:10:05;19.40;;;16.80;;
26478;SDS011;14163;-26.142;27.992;2022-10-03T02:12:47;17.70;;;16.00;;
26478;SDS011;14163;-26.142;27.992;2022-10-03T02:15:24;18.10;;;16.30;;
26478;SDS011;14163;-26.142;27.992;2022-10-03T02:18:00;19.50;;;17.43;;
26478;SDS011;14163;-26.142;27.992;2022-10-03T02:20:42;22.20;;;17.40;;
26478;SDS011;14163;-26.142;27.992;2022-10-03T02:23:36;19.00;;;17.10;;
26478;SDS011;14163;-26.142;27.992;2022-10-03T02:29:25;19.13;;;16.23;;
26478;SDS011;14163;-26.142;27.992;2022-10-03T02:32:30;20.43;;;16.97;;
26478;SDS011;14163;-26.142;27.992;2022-10-03T02:35:43;19.60;;;17.57;;
26478;SDS011;14163;-26.142;27.992;2022-10-03T02:38:28;21.50;;;17.47;;
26478;SDS011;14163;-26.142;27.992;2022-10-03T02:41:16;18.07;;;16.33;;
26478;SDS011;14163;-26.142;27.992;2022-10-03T02:47:19;20.90;;;16.93;;
26478;SDS011;14163;-26.142;27.992;2022-10-03T02:53:21;19.73;;;16.50;;
26478;SDS011;14163;-26.142;27.992;2022-10-03T02:59:17;20.00;;;16.17;;
26478;SDS011;14163;-26.142;27.992;2022-10-03T03:05:15;19.90;;;17.20;;
26478;SDS011;14163;-26.142;27.992;2022-10-03T03:08:03;19.83;;;16.87;;
26478;SDS011;14163;-26.142;27.992;2022-10-03T03:11:15;19.53;;;16.90;;
26478;SDS011;14163;-26.142;27.992;2022-10-03T03:17:34;18.67;;;16.50;;
26478;SDS011;14163;-26.142;27.992;2022-10-03T03:23:09;19.57;;;17.60;;
26478;SDS011;14163;-26.142;27.992;2022-10-03T03:26:03;18.93;;;16.80;;
26478;SDS011;14163;-26.142;27.992;2022-10-03T03:28:56;20.00;;;16.00;;
26478;SDS011;14163;-26.142;27.992;2022-10-03T03:31:33;24.90;;;17.80;;
26478;SDS011;14163;-26.142;27.992;2022-10-03T03:34:09;19.10;;;17.20;;
26478;SDS011;14163;-26.142;27.992;2022-10-03T03:36:48;19.13;;;16.90;;
26478;SDS011;14163;-26.142;27.992;2022-10-03T03:39:31;19.47;;;17.23;;
26478;SDS011;14163;-26.142;27.992;2022-10-03T03:45:31;20.80;;;17.60;;
26478;SDS011;14163;-26.142;27.992;2022-10-03T03:48:12;19.90;;;16.27;;
26478;SDS011;14163;-26.142;27.992;2022-10-03T03:50:59;18.83;;;16.93;;
26478;SDS011;14163;-26.142;27.992;2022-10-03T03:53:49;19.70;;;17.43;;
26478;SDS011;14163;-26.142;27.992;2022-10-03T03:56:47;19.20;;;17.13;;
26478;SDS011;14163;-26.142;27.992;2022-10-03T03:59:32;18.77;;;16.97;;
26478;SDS011;14163;-26.142;27.992;2022-10-03T04:02:22;20.00;;;18.20;;
26478;SDS011;14163;-26.142;27.992;2022-10-03T04:05:05;21.07;;;17.07;;
26478;SDS011;14163;-26.142;27.992;2022-10-03T04:07:47;18.33;;;16.47;;
26478;SDS011;14163;-26.142;27.992;2022-10-03T04:10:27;19.07;;;17.07;;
26478;SDS011;14163;-26.142;27.992;2022-10-03T04:13:17;21.23;;;16.70;;
26478;SDS011;14163;-26.142;27.992;2022-10-03T04:16:10;18.77;;;16.73;;
26478;SDS011;14163;-26.142;27.992;2022-10-03T04:19:27;17.23;;;15.63;;
26478;SDS011;14163;-26.142;27.992;2022-10-03T04:25:09;18.77;;;16.77;;
26478;SDS011;14163;-26.142;27.992;2022-10-03T04:27:59;20.97;;;17.90;;
26478;SDS011;14163;-26.142;27.992;2022-10-03T04:30:55;18.37;;;16.53;;
26478;SDS011;14163;-26.142;27.992;2022-10-03T04:33:37;18.43;;;16.00;;
26478;SDS011;14163;-26.142;27.992;2022-10-03T04:36:32;16.40;;;14.70;;
26478;SDS011;14163;-26.142;27.992;2022-10-03T04:39:17;17.60;;;15.77;;
26478;SDS011;14163;-26.142;27.992;2022-10-03T04:41:57;22.30;;;16.50;;
26478;SDS011;14163;-26.142;27.992;2022-10-03T04:44:41;19.30;;;15.40;;
26478;SDS011;14163;-26.142;27.992;2022-10-03T04:47:19;19.80;;;16.67;;
26478;SDS011;14163;-26.142;27.992;2022-10-03T04:49:54;19.03;;;16.00;;
26478;SDS011;14163;-26.142;27.992;2022-10-03T04:52:29;18.70;;;16.20;;
26478;SDS011;14163;-26.142;27.992;2022-10-03T04:55:06;21.03;;;16.50;;
26478;SDS011;14163;-26.142;27.992;2022-10-03T04:57:50;20.90;;;17.03;;
26478;SDS011;14163;-26.142;27.992;2022-10-03T05:00:26;18.70;;;16.70;;
26478;SDS011;14163;-26.142;27.992;2022-10-03T05:03:00;19.77;;;15.03;;
26478;SDS011;14163;-26.142;27.992;2022-10-03T05:05:49;21.07;;;16.40;;
26478;SDS011;14163;-26.142;27.992;2022-10-03T05:08:27;19.23;;;16.40;;
26478;SDS011;14163;-26.142;27.992;2022-10-03T05:11:14;23.00;;;16.37;;
26478;SDS011;14163;-26.142;27.992;2022-10-03T05:13:53;21.30;;;16.20;;
26478;SDS011;14163;-26.142;27.992;2022-10-03T05:16:31;20.80;;;14.53;;
26478;SDS011;14163;-26.142;27.992;2022-10-03T05:19:09;17.83;;;15.40;;
26478;SDS011;14163;-26.142;27.992;2022-10-03T05:22:15;16.87;;;15.13;;
26478;SDS011;14163;-26.142;27.992;2022-10-03T05:24:57;19.57;;;14.63;;
26478;SDS011;14163;-26.142;27.992;2022-10-03T05:27:40;18.80;;;15.50;;
26478;SDS011;14163;-26.142;27.992;2022-10-03T05:30:18;17.50;;;14.10;;
26478;SDS011;14163;-26.142;27.992;2022-10-03T05:33:02;14.70;;;13.33;;
26478;SDS011;14163;-26.142;27.992;2022-10-03T05:35:41;16.00;;;13.70;;
26478;SDS011;14163;-26.142;27.992;2022-10-03T05:38:23;14.40;;;13.00;;
26478;SDS011;14163;-26.142;27.992;2022-10-03T05:41:17;15.00;;;13.40;;
26478;SDS011;14163;-26.142;27.992;2022-10-03T05:44:03;19.00;;;14.60;;
26478;SDS011;14163;-26.142;27.992;2022-10-03T05:46:39;23.43;;;14.83;;
26478;SDS011;14163;-26.142;27.992;2022-10-03T05:49:29;15.17;;;13.20;;
26478;SDS011;14163;-26.142;27.992;2022-10-03T05:52:30;17.23;;;13.70;;
26478;SDS011;14163;-26.142;27.992;2022-10-03T05:55:21;15.57;;;12.90;;
26478;SDS011;14163;-26.142;27.992;2022-10-03T06:01:13;14.20;;;12.20;;
26478;SDS011;14163;-26.142;27.992;2022-10-03T06:04:23;14.30;;;12.90;;
26478;SDS011;14163;-26.142;27.992;2022-10-03T06:07:19;20.27;;;13.17;;
26478;SDS011;14163;-26.142;27.992;2022-10-03T06:12:58;16.53;;;13.80;;
26478;SDS011;14163;-26.142;27.992;2022-10-03T06:15:46;15.07;;;13.47;;
26478;SDS011;14163;-26.142;27.992;2022-10-03T06:18:36;16.53;;;13.07;;
26478;SDS011;14163;-26.142;27.992;2022-10-03T06:21:31;17.27;;;13.90;;
26478;SDS011;14163;-26.142;27.992;2022-10-03T06:24:32;19.47;;;14.33;;
26478;SDS011;14163;-26.142;27.992;2022-10-03T06:30:50;18.20;;;15.17;;
26478;SDS011;14163;-26.142;27.992;2022-10-03T06:36:59;18.73;;;14.50;;
26478;SDS011;14163;-26.142;27.992;2022-10-03T06:40:08;15.70;;;14.00;;
26478;SDS011;14163;-26.142;27.992;2022-10-03T06:43:15;18.20;;;13.90;;
26478;SDS011;14163;-26.142;27.992;2022-10-03T06:58:28;17.67;;;14.23;;
26478;SDS011;14163;-26.142;27.992;2022-10-03T07:04:44;15.73;;;13.87;;
26478;SDS011;14163;-26.142;27.992;2022-10-03T07:08:16;20.40;;;14.83;;
26478;SDS011;14163;-26.142;27.992;2022-10-03T07:17:31;23.57;;;14.73;;
26478;SDS011;14163;-26.142;27.992;2022-10-03T07:20:20;15.40;;;13.90;;
26478;SDS011;14163;-26.142;27.992;2022-10-03T07:23:20;15.27;;;13.43;;
26478;SDS011;14163;-26.142;27.992;2022-10-03T07:26:14;16.73;;;14.03;;
26478;SDS011;14163;-26.142;27.992;2022-10-03T07:29:16;14.70;;;13.43;;
26478;SDS011;14163;-26.142;27.992;2022-10-03T07:32:16;15.53;;;13.50;;
26478;SDS011;14163;-26.142;27.992;2022-10-03T07:35:25;16.27;;;14.37;;
26478;SDS011;14163;-26.142;27.992;2022-10-03T07:41:39;16.47;;;12.80;;
26478;SDS011;14163;-26.142;27.992;2022-10-03T07:44:33;15.50;;;13.87;;
26478;SDS011;14163;-26.142;27.992;2022-10-03T07:47:52;13.57;;;11.80;;
26478;SDS011;14163;-26.142;27.992;2022-10-03T07:50:50;15.40;;;12.80;;
26478;SDS011;14163;-26.142;27.992;2022-10-03T07:56:44;17.17;;;14.40;;
26478;SDS011;14163;-26.142;27.992;2022-10-03T08:02:44;13.10;;;11.77;;
26478;SDS011;14163;-26.142;27.992;2022-10-03T10:17:35;12.53;;;11.53;;
26478;SDS011;14163;-26.142;27.992;2022-10-03T10:20:40;15.73;;;12.20;;
26478;SDS011;14163;-26.142;27.992;2022-10-03T10:23:29;18.93;;;12.20;;
26478;SDS011;14163;-26.142;27.992;2022-10-03T10:29:10;13.33;;;11.80;;
26478;SDS011;14163;-26.142;27.992;2022-10-03T10:32:12;12.33;;;11.23;;
26478;SDS011;14163;-26.142;27.992;2022-10-03T10:38:20;12.70;;;11.60;;
26478;SDS011;14163;-26.142;27.992;2022-10-03T10:47:11;13.93;;;12.00;;
26478;SDS011;14163;-26.142;27.992;2022-10-03T11:00:03;11.77;;;10.80;;
26478;SDS011;14163;-26.142;27.992;2022-10-03T11:03:13;12.83;;;11.70;;
26478;SDS011;14163;-26.142;27.992;2022-10-03T11:09:30;13.13;;;11.83;;
26478;SDS011;14163;-26.142;27.992;2022-10-03T11:12:44;13.43;;;12.10;;
26478;SDS011;14163;-26.142;27.992;2022-10-03T11:15:51;13.10;;;11.83;;
26478;SDS011;14163;-26.142;27.992;2022-10-03T11:19:04;12.60;;;11.37;;
26478;SDS011;14163;-26.142;27.992;2022-10-03T11:22:03;12.43;;;11.20;;
26478;SDS011;14163;-26.142;27.992;2022-10-03T11:25:06;12.47;;;11.40;;
26478;SDS011;14163;-26.142;27.992;2022-10-03T11:34:55;9.93;;;9.27;;
26478;SDS011;14163;-26.142;27.992;2022-10-03T11:37:54;11.05;;;10.18;;
26478;SDS011;14163;-26.142;27.992;2022-10-03T11:40:33;11.27;;;10.30;;
26478;SDS011;14163;-26.142;27.992;2022-10-03T11:46:18;11.70;;;10.48;;
26478;SDS011;14163;-26.142;27.992;2022-10-03T11:49:05;11.60;;;10.70;;
26478;SDS011;14163;-26.142;27.992;2022-10-03T11:51:46;10.85;;;10.00;;
26478;SDS011;14163;-26.142;27.992;2022-10-03T11:54:24;10.82;;;10.02;;
26478;SDS011;14163;-26.142;27.992;2022-10-03T11:56:58;10.32;;;9.77;;
26478;SDS011;14163;-26.142;27.992;2022-10-03T11:59:46;10.60;;;9.93;;
26478;SDS011;14163;-26.142;27.992;2022-10-03T12:02:36;12.00;;;11.10;;
26478;SDS011;14163;-26.142;27.992;2022-10-03T12:05:22;10.65;;;9.85;;
26478;SDS011;14163;-26.142;27.992;2022-10-03T12:08:09;10.07;;;9.38;;
26478;SDS011;14163;-26.142;27.992;2022-10-03T12:11:05;10.63;;;9.80;;
26478;SDS011;14163;-26.142;27.992;2022-10-03T12:13:43;10.18;;;9.43;;
26478;SDS011;14163;-26.142;27.992;2022-10-03T12:16:21;10.27;;;9.60;;
26478;SDS011;14163;-26.142;27.992;2022-10-03T12:18:55;9.75;;;9.15;;
26478;SDS011;14163;-26.142;27.992;2022-10-03T12:21:34;9.90;;;9.25;;
26478;SDS011;14163;-26.142;27.992;2022-10-03T12:24:16;9.30;;;8.70;;
26478;SDS011;14163;-26.142;27.992;2022-10-03T12:27:09;9.65;;;8.93;;
26478;SDS011;14163;-26.142;27.992;2022-10-03T12:29:51;9.77;;;9.18;;
26478;SDS011;14163;-26.142;27.992;2022-10-03T12:32:25;10.40;;;9.65;;
26478;SDS011;14163;-26.142;27.992;2022-10-03T12:35:09;10.77;;;9.98;;
26478;SDS011;14163;-26.142;27.992;2022-10-03T12:37:57;11.13;;;10.32;;
26478;SDS011;14163;-26.142;27.992;2022-10-03T12:40:39;11.38;;;10.55;;
26478;SDS011;14163;-26.142;27.992;2022-10-03T12:43:16;10.85;;;9.80;;
26478;SDS011;14163;-26.142;27.992;2022-10-03T12:45:59;9.50;;;8.88;;
26478;SDS011;14163;-26.142;27.992;2022-10-03T12:48:40;10.05;;;9.25;;
26478;SDS011;14163;-26.142;27.992;2022-10-03T12:51:19;11.25;;;10.35;;
26478;SDS011;14163;-26.142;27.992;2022-10-03T12:54:04;10.20;;;9.50;;
26478;SDS011;14163;-26.142;27.992;2022-10-03T12:56:44;10.93;;;10.20;;
26478;SDS011;14163;-26.142;27.992;2022-10-03T12:59:18;10.83;;;10.13;;
26478;SDS011;14163;-26.142;27.992;2022-10-03T13:02:01;11.57;;;10.40;;
26478;SDS011;14163;-26.142;27.992;2022-10-03T13:04:53;11.00;;;10.20;;
26478;SDS011;14163;-26.142;27.992;2022-10-03T13:07:45;11.77;;;10.97;;
26478;SDS011;14163;-26.142;27.992;2022-10-03T13:10:23;13.17;;;11.57;;
26478;SDS011;14163;-26.142;27.992;2022-10-03T13:13:03;12.77;;;11.70;;
26478;SDS011;14163;-26.142;27.992;2022-10-03T13:18:48;11.10;;;10.33;;
26478;SDS011;14163;-26.142;27.992;2022-10-03T13:21:22;11.53;;;10.67;;
26478;SDS011;14163;-26.142;27.992;2022-10-03T13:24:01;12.00;;;11.07;;
26478;SDS011;14163;-26.142;27.992;2022-10-03T13:26:38;12.33;;;11.20;;
26478;SDS011;14163;-26.142;27.992;2022-10-03T13:29:23;12.57;;;11.50;;
26478;SDS011;14163;-26.142;27.992;2022-10-03T13:32:05;11.50;;;10.57;;
26478;SDS011;14163;-26.142;27.992;2022-10-03T13:34:50;12.60;;;11.40;;
26478;SDS011;14163;-26.142;27.992;2022-10-03T13:37:50;12.43;;;11.33;;
26478;SDS011;14163;-26.142;27.992;2022-10-03T13:40:47;11.80;;;10.77;;
26478;SDS011;14163;-26.142;27.992;2022-10-03T13:43:23;12.57;;;11.67;;
26478;SDS011;14163;-26.142;27.992;2022-10-03T13:46:04;13.00;;;11.83;;
26478;SDS011;14163;-26.142;27.992;2022-10-03T13:48:40;12.17;;;10.83;;
26478;SDS011;14163;-26.142;27.992;2022-10-03T13:51:18;12.57;;;10.97;;
26478;SDS011;14163;-26.142;27.992;2022-10-03T13:53:56;12.80;;;11.87;;
26478;SDS011;14163;-26.142;27.992;2022-10-03T13:56:39;12.00;;;11.10;;
26478;SDS011;14163;-26.142;27.992;2022-10-03T13:59:20;12.20;;;11.37;;
26478;SDS011;14163;-26.142;27.992;2022-10-03T14:02:09;13.00;;;11.80;;
26478;SDS011;14163;-26.142;27.992;2022-10-03T14:05:04;12.10;;;11.20;;
26478;SDS011;14163;-26.142;27.992;2022-10-03T14:07:51;11.87;;;11.07;;
26478;SDS011;14163;-26.142;27.992;2022-10-03T14:10:38;11.63;;;10.83;;
26478;SDS011;14163;-26.142;27.992;2022-10-03T14:13:19;11.83;;;11.03;;
26478;SDS011;14163;-26.142;27.992;2022-10-03T14:15:57;12.20;;;11.23;;
26478;SDS011;14163;-26.142;27.992;2022-10-03T14:18:43;12.80;;;11.80;;
26478;SDS011;14163;-26.142;27.992;2022-10-03T14:21:28;12.30;;;11.10;;
26478;SDS011;14163;-26.142;27.992;2022-10-03T14:24:19;12.23;;;11.23;;
26478;SDS011;14163;-26.142;27.992;2022-10-03T14:27:08;12.03;;;10.97;;
26478;SDS011;14163;-26.142;27.992;2022-10-03T14:29:49;12.60;;;11.60;;
26478;SDS011;14163;-26.142;27.992;2022-10-03T14:32:29;11.83;;;10.90;;
26478;SDS011;14163;-26.142;27.992;2022-10-03T14:35:06;13.87;;;12.63;;
26478;SDS011;14163;-26.142;27.992;2022-10-03T14:37:45;13.63;;;12.23;;
26478;SDS011;14163;-26.142;27.992;2022-10-03T14:40:24;13.00;;;11.90;;
26478;SDS011;14163;-26.142;27.992;2022-10-03T14:43:08;12.90;;;11.70;;
26478;SDS011;14163;-26.142;27.992;2022-10-03T14:45:59;11.60;;;10.80;;
26478;SDS011;14163;-26.142;27.992;2022-10-03T14:48:33;13.17;;;12.00;;
26478;SDS011;14163;-26.142;27.992;2022-10-03T14:51:08;11.93;;;10.97;;
26478;SDS011;14163;-26.142;27.992;2022-10-03T14:53:45;12.23;;;11.23;;
26478;SDS011;14163;-26.142;27.992;2022-10-03T14:56:20;14.07;;;11.80;;
26478;SDS011;14163;-26.142;27.992;2022-10-03T14:58:51;12.47;;;11.43;;
26478;SDS011;14163;-26.142;27.992;2022-10-03T15:01:22;13.40;;;12.10;;
26478;SDS011;14163;-26.142;27.992;2022-10-03T15:03:54;12.50;;;11.47;;
26478;SDS011;14163;-26.142;27.992;2022-10-03T15:06:34;12.50;;;11.50;;
26478;SDS011;14163;-26.142;27.992;2022-10-03T15:09:20;12.60;;;11.50;;
26478;SDS011;14163;-26.142;27.992;2022-10-03T15:11:55;11.80;;;10.93;;
26478;SDS011;14163;-26.142;27.992;2022-10-03T15:14:38;12.27;;;11.37;;
26478;SDS011;14163;-26.142;27.992;2022-10-03T15:17:16;13.83;;;12.63;;
26478;SDS011;14163;-26.142;27.992;2022-10-03T15:19:48;12.20;;;11.07;;
26478;SDS011;14163;-26.142;27.992;2022-10-03T15:22:24;12.17;;;11.27;;
26478;SDS011;14163;-26.142;27.992;2022-10-03T15:24:59;12.20;;;11.20;;
26478;SDS011;14163;-26.142;27.992;2022-10-03T15:27:34;13.33;;;12.17;;
26478;SDS011;14163;-26.142;27.992;2022-10-03T15:30:14;12.20;;;11.30;;
26478;SDS011;14163;-26.142;27.992;2022-10-03T15:32:48;13.70;;;12.47;;
26478;SDS011;14163;-26.142;27.992;2022-10-03T15:35:22;14.90;;;13.43;;
26478;SDS011;14163;-26.142;27.992;2022-10-03T15:37:54;14.13;;;12.97;;
26478;SDS011;14163;-26.142;27.992;2022-10-03T15:40:34;14.43;;;13.23;;
26478;SDS011;14163;-26.142;27.992;2022-10-03T15:43:05;15.60;;;14.30;;
26478;SDS011;14163;-26.142;27.992;2022-10-03T15:45:44;15.50;;;14.30;;
26478;SDS011;14163;-26.142;27.992;2022-10-03T15:48:14;16.13;;;14.40;;
26478;SDS011;14163;-26.142;27.992;2022-10-03T15:50:48;16.00;;;14.33;;
26478;SDS011;14163;-26.142;27.992;2022-10-03T15:53:23;16.47;;;14.93;;
26478;SDS011;14163;-26.142;27.992;2022-10-03T15:55:54;17.10;;;15.37;;
26478;SDS011;14163;-26.142;27.992;2022-10-03T15:58:42;17.03;;;15.53;;
26478;SDS011;14163;-26.142;27.992;2022-10-03T16:01:17;16.77;;;15.00;;
26478;SDS011;14163;-26.142;27.992;2022-10-03T16:03:49;18.10;;;16.20;;
26478;SDS011;14163;-26.142;27.992;2022-10-03T18:11:17;22.23;;;20.17;;
26478;SDS011;14163;-26.142;27.992;2022-10-03T18:13:49;22.67;;;20.43;;
26478;SDS011;14163;-26.142;27.992;2022-10-03T18:16:26;22.90;;;20.33;;
26478;SDS011;14163;-26.142;27.992;2022-10-03T18:19:08;21.90;;;19.60;;
26478;SDS011;14163;-26.142;27.992;2022-10-03T18:21:53;22.07;;;19.97;;
26478;SDS011;14163;-26.142;27.992;2022-10-03T18:24:34;21.33;;;19.20;;
26478;SDS011;14163;-26.142;27.992;2022-10-03T18:27:25;25.33;;;21.03;;
26478;SDS011;14163;-26.142;27.992;2022-10-03T18:30:20;25.33;;;22.67;;
26478;SDS011;14163;-26.142;27.992;2022-10-03T18:32:54;23.30;;;20.90;;
26478;SDS011;14163;-26.142;27.992;2022-10-03T18:35:26;23.27;;;20.77;;
26478;SDS011;14163;-26.142;27.992;2022-10-03T18:38:03;24.33;;;22.13;;
26478;SDS011;14163;-26.142;27.992;2022-10-03T18:40:47;24.13;;;21.67;;
26478;SDS011;14163;-26.142;27.992;2022-10-03T18:43:37;24.60;;;22.20;;
26478;SDS011;14163;-26.142;27.992;2022-10-03T18:46:13;26.80;;;20.67;;
26478;SDS011;14163;-26.142;27.992;2022-10-03T18:48:54;22.60;;;20.30;;
26478;SDS011;14163;-26.142;27.992;2022-10-03T18:51:29;22.33;;;20.00;;
26478;SDS011;14163;-26.142;27.992;2022-10-03T18:54:02;21.53;;;19.53;;
26478;SDS011;14163;-26.142;27.992;2022-10-03T18:56:38;19.13;;;17.33;;
26478;SDS011;14163;-26.142;27.992;2022-10-03T18:59:18;20.93;;;19.00;;
26478;SDS011;14163;-26.142;27.992;2022-10-03T19:01:52;23.13;;;20.73;;
26478;SDS011;14163;-26.142;27.992;2022-10-03T19:04:32;20.83;;;18.50;;
26478;SDS011;14163;-26.142;27.992;2022-10-03T19:07:10;22.87;;;20.60;;
26478;SDS011;14163;-26.142;27.992;2022-10-03T19:13:03;21.23;;;19.07;;
26478;SDS011;14163;-26.142;27.992;2022-10-03T19:15:45;19.67;;;17.80;;
26478;SDS011;14163;-26.142;27.992;2022-10-03T19:18:23;19.97;;;17.97;;
26478;SDS011;14163;-26.142;27.992;2022-10-03T19:20:58;20.63;;;18.70;;
26478;SDS011;14163;-26.142;27.992;2022-10-03T19:23:33;21.63;;;19.83;;
26478;SDS011;14163;-26.142;27.992;2022-10-03T19:26:06;21.70;;;19.67;;
26478;SDS011;14163;-26.142;27.992;2022-10-03T19:28:42;20.30;;;18.47;;
26478;SDS011;14163;-26.142;27.992;2022-10-03T19:31:16;21.40;;;19.30;;
26478;SDS011;14163;-26.142;27.992;2022-10-03T19:33:51;21.83;;;19.30;;
26478;SDS011;14163;-26.142;27.992;2022-10-03T19:36:26;21.00;;;19.30;;
26478;SDS011;14163;-26.142;27.992;2022-10-03T19:38:59;20.50;;;18.73;;
26478;SDS011;14163;-26.142;27.992;2022-10-03T19:41:30;21.90;;;19.90;;
26478;SDS011;14163;-26.142;27.992;2022-10-03T19:44:04;21.10;;;18.90;;
26478;SDS011;14163;-26.142;27.992;2022-10-03T19:46:52;20.93;;;19.00;;
26478;SDS011;14163;-26.142;27.992;2022-10-03T19:49:33;20.50;;;18.60;;
26478;SDS011;14163;-26.142;27.992;2022-10-03T19:52:16;20.63;;;18.80;;
26478;SDS011;14163;-26.142;27.992;2022-10-03T19:54:54;20.80;;;18.90;;
26478;SDS011;14163;-26.142;27.992;2022-10-03T19:57:38;20.20;;;18.43;;
26478;SDS011;14163;-26.142;27.992;2022-10-03T20:00:25;18.23;;;16.67;;
26478;SDS011;14163;-26.142;27.992;2022-10-03T20:03:04;20.00;;;18.27;;
26478;SDS011;14163;-26.142;27.992;2022-10-03T20:05:42;20.13;;;18.43;;
26478;SDS011;14163;-26.142;27.992;2022-10-03T20:08:24;20.80;;;18.70;;
26478;SDS011;14163;-26.142;27.992;2022-10-03T20:11:02;19.57;;;17.53;;
26478;SDS011;14163;-26.142;27.992;2022-10-03T20:13:52;19.37;;;17.57;;
26478;SDS011;14163;-26.142;27.992;2022-10-03T20:16:23;19.83;;;18.13;;
26478;SDS011;14163;-26.142;27.992;2022-10-03T20:19:04;18.23;;;16.60;;
26478;SDS011;14163;-26.142;27.992;2022-10-03T20:21:35;18.90;;;17.10;;
26478;SDS011;14163;-26.142;27.992;2022-10-03T20:24:08;18.37;;;16.70;;
26478;SDS011;14163;-26.142;27.992;2022-10-03T20:26:44;19.73;;;17.17;;
26478;SDS011;14163;-26.142;27.992;2022-10-03T20:29:28;18.77;;;17.17;;
26478;SDS011;14163;-26.142;27.992;2022-10-03T20:32:02;19.90;;;17.90;;
26478;SDS011;14163;-26.142;27.992;2022-10-03T20:34:34;19.40;;;17.67;;
26478;SDS011;14163;-26.142;27.992;2022-10-03T20:37:15;19.10;;;17.30;;
26478;SDS011;14163;-26.142;27.992;2022-10-03T20:40:07;19.83;;;17.93;;
26478;SDS011;14163;-26.142;27.992;2022-10-03T20:42:47;19.60;;;17.80;;
26478;SDS011;14163;-26.142;27.992;2022-10-03T20:45:20;19.37;;;17.17;;
26478;SDS011;14163;-26.142;27.992;2022-10-03T20:47:56;19.67;;;17.70;;
26478;SDS011;14163;-26.142;27.992;2022-10-03T20:50:29;19.90;;;18.13;;
26478;SDS011;14163;-26.142;27.992;2022-10-03T20:53:00;19.93;;;18.07;;
26478;SDS011;14163;-26.142;27.992;2022-10-03T20:55:31;25.27;;;18.50;;
26478;SDS011;14163;-26.142;27.992;2022-10-03T20:58:08;19.43;;;17.83;;
26478;SDS011;14163;-26.142;27.992;2022-10-03T21:00:42;20.00;;;18.30;;
26478;SDS011;14163;-26.142;27.992;2022-10-03T21:03:15;21.63;;;19.30;;
26478;SDS011;14163;-26.142;27.992;2022-10-03T21:05:56;25.90;;;18.57;;
26478;SDS011;14163;-26.142;27.992;2022-10-03T21:08:28;21.23;;;18.73;;
26478;SDS011;14163;-26.142;27.992;2022-10-03T21:11:01;20.67;;;18.80;;
26478;SDS011;14163;-26.142;27.992;2022-10-03T21:13:41;20.30;;;18.27;;
26478;SDS011;14163;-26.142;27.992;2022-10-03T21:16:18;20.97;;;19.10;;
26478;SDS011;14163;-26.142;27.992;2022-10-03T21:18:49;20.83;;;18.93;;
26478;SDS011;14163;-26.142;27.992;2022-10-03T21:21:24;20.63;;;18.80;;
26478;SDS011;14163;-26.142;27.992;2022-10-03T21:23:59;21.77;;;19.63;;
26478;SDS011;14163;-26.142;27.992;2022-10-03T21:26:32;20.37;;;18.40;;
26478;SDS011;14163;-26.142;27.992;2022-10-03T21:29:25;21.20;;;19.20;;
26478;SDS011;14163;-26.142;27.992;2022-10-03T21:31:58;20.87;;;18.57;;
26478;SDS011;14163;-26.142;27.992;2022-10-03T21:34:42;21.87;;;19.60;;
26478;SDS011;14163;-26.142;27.992;2022-10-03T21:37:16;21.27;;;19.40;;
26478;SDS011;14163;-26.142;27.992;2022-10-03T21:39:57;20.97;;;19.00;;
26478;SDS011;14163;-26.142;27.992;2022-10-03T21:42:40;20.47;;;18.67;;
26478;SDS011;14163;-26.142;27.992;2022-10-03T21:45:21;21.57;;;19.40;;
26478;SDS011;14163;-26.142;27.992;2022-10-03T21:47:59;23.50;;;20.27;;
26478;SDS011;14163;-26.142;27.992;2022-10-03T21:50:39;20.00;;;18.27;;
26478;SDS011;14163;-26.142;27.992;2022-10-03T21:53:17;21.23;;;18.97;;
26478;SDS011;14163;-26.142;27.992;2022-10-03T21:55:55;20.10;;;18.00;;
26478;SDS011;14163;-26.142;27.992;2022-10-03T21:58:54;21.20;;;19.43;;
26478;SDS011;14163;-26.142;27.992;2022-10-03T22:01:40;22.30;;;20.10;;
26478;SDS011;14163;-26.142;27.992;2022-10-03T22:04:17;20.33;;;18.50;;
26478;SDS011;14163;-26.142;27.992;2022-10-03T22:06:53;19.20;;;17.40;;
26478;SDS011;14163;-26.142;27.992;2022-10-03T22:09:27;23.37;;;16.87;;
26478;SDS011;14163;-26.142;27.992;2022-10-03T22:11:58;18.53;;;16.80;;
26478;SDS011;14163;-26.142;27.992;2022-10-03T22:14:33;16.73;;;15.33;;
26478;SDS011;14163;-26.142;27.992;2022-10-03T22:17:07;17.47;;;15.90;;
26478;SDS011;14163;-26.142;27.992;2022-10-03T22:19:48;17.87;;;16.03;;
26478;SDS011;14163;-26.142;27.992;2022-10-03T22:22:34;16.13;;;14.83;;
26478;SDS011;14163;-26.142;27.992;2022-10-03T22:25:14;16.67;;;15.27;;
26478;SDS011;14163;-26.142;27.992;2022-10-03T22:27:55;15.50;;;13.97;;
26478;SDS011;14163;-26.142;27.992;2022-10-03T22:30:31;16.50;;;15.00;;
26478;SDS011;14163;-26.142;27.992;2022-10-03T22:33:07;15.30;;;14.00;;
26478;SDS011;14163;-26.142;27.992;2022-10-03T22:35:46;16.60;;;14.80;;
26478;SDS011;14163;-26.142;27.992;2022-10-03T22:38:18;14.53;;;13.43;;
26478;SDS011;14163;-26.142;27.992;2022-10-03T22:40:53;15.83;;;14.13;;
26478;SDS011;14163;-26.142;27.992;2022-10-03T22:43:26;15.03;;;13.73;;
26478;SDS011;14163;-26.142;27.992;2022-10-03T22:45:56;15.73;;;14.50;;
26478;SDS011;14163;-26.142;27.992;2022-10-03T22:48:27;15.60;;;14.20;;
26478;SDS011;14163;-26.142;27.992;2022-10-03T22:51:00;15.80;;;14.50;;
26478;SDS011;14163;-26.142;27.992;2022-10-03T22:53:33;15.37;;;14.00;;
26478;SDS011;14163;-26.142;27.992;2022-10-03T22:59:08;15.00;;;13.40;;
26478;SDS011;14163;-26.142;27.992;2022-10-03T23:01:41;16.27;;;14.60;;
26478;SDS011;14163;-26.142;27.992;2022-10-03T23:04:17;16.17;;;14.80;;
26478;SDS011;14163;-26.142;27.992;2022-10-03T23:07:03;14.83;;;13.37;;
26478;SDS011;14163;-26.142;27.992;2022-10-03T23:09:56;15.00;;;13.80;;
26478;SDS011;14163;-26.142;27.992;2022-10-03T23:12:33;14.90;;;13.47;;
26478;SDS011;14163;-26.142;27.992;2022-10-03T23:15:07;15.97;;;14.50;;
26478;SDS011;14163;-26.142;27.992;2022-10-03T23:18:08;14.60;;;13.47;;
26478;SDS011;14163;-26.142;27.992;2022-10-03T23:21:03;14.33;;;13.13;;
26478;SDS011;14163;-26.142;27.992;2022-10-03T23:23:36;14.40;;;13.00;;
26478;SDS011;14163;-26.142;27.992;2022-10-03T23:26:26;16.03;;;14.43;;
26478;SDS011;14163;-26.142;27.992;2022-10-03T23:29:18;14.97;;;13.67;;
26478;SDS011;14163;-26.142;27.992;2022-10-03T23:31:53;15.67;;;14.27;;
26478;SDS011;14163;-26.142;27.992;2022-10-03T23:34:43;15.43;;;13.83;;
26478;SDS011;14163;-26.142;27.992;2022-10-03T23:37:40;15.27;;;14.00;;
26478;SDS011;14163;-26.142;27.992;2022-10-03T23:45:56;15.70;;;13.63;;
26478;SDS011;14163;-26.142;27.992;2022-10-03T23:48:27;14.80;;;13.53;;
26478;SDS011;14163;-26.142;27.992;2022-10-03T23:51:05;15.07;;;13.57;;
26478;SDS011;14163;-26.142;27.992;2022-10-03T23:53:38;15.03;;;13.80;;